Time;durP1;ratioP1;P1;durP2;ratioP2;P2;SDS_P1;SDS_P2;PMS_P1;PMS_P2;Temp;Humidity;BMP_temperature;BMP_pressure;BME280_temperature;BME280_humidity;BME280_pressure;Samples;Min_cycle;Max_cycle;Signal;HPM_P1;HPM_P2
2021/12/06 08:32:40;;;;;;;19.13;13.33;;;2.30;89.80;;;;;;5089883;27;20661;-44
2021/12/06 08:35:28;;;;;;;19.57;13.60;;;3.50;89.80;;;;;;5008106;28;21051;-46
2021/12/06 08:37:58;;;;;;;20.03;13.90;;;3.60;89.80;;;;;;5060613;28;20461;-45
2021/12/06 08:40:29;;;;;;;17.23;12.20;;;3.70;89.80;;;;;;5060676;28;20483;-45
2021/12/06 08:42:58;;;;;;;19.53;12.40;;;3.80;89.80;;;;;;5060519;28;20830;-44
2021/12/06 08:45:27;;;;;;;19.07;12.27;;;3.90;89.80;;;;;;5061918;28;20458;-45
2021/12/06 08:47:56;;;;;;;17.83;12.73;;;3.90;89.80;;;;;;5061560;28;20453;-45
2021/12/06 08:50:27;;;;;;;17.80;13.60;;;4.00;89.80;;;;;;5064833;28;20761;-45
2021/12/06 08:52:55;;;;;;;19.60;12.50;;;4.10;89.80;;;;;;5058980;28;20508;-45
2021/12/06 08:55:24;;;;;;;19.50;13.00;;;4.20;89.80;;;;;;5060932;28;20458;-45
2021/12/06 08:57:53;;;;;;;17.87;13.00;;;4.20;89.80;;;;;;5062183;28;20461;-46
2021/12/06 09:00:26;;;;;;;17.63;13.43;;;4.30;89.80;;;;;;5064845;28;20501;-45
2021/12/06 09:02:55;;;;;;;18.67;12.50;;;4.30;89.80;;;;;;5061105;28;20973;-45
2021/12/06 09:05:28;;;;;;;19.03;13.87;;;4.30;89.70;;;;;;5058293;28;20536;-45
2021/12/06 09:07:57;;;;;;;22.20;13.97;;;4.30;88.90;;;;;;5060575;28;20468;-46
2021/12/06 09:10:26;;;;;;;20.97;13.70;;;4.30;89.10;;;;;;5062877;28;20805;-44
2021/12/06 09:12:55;;;;;;;19.90;13.97;;;4.30;89.30;;;;;;5062514;28;20647;-44
2021/12/06 09:15:23;;;;;;;22.77;14.00;;;4.40;89.40;;;;;;5059513;28;20493;-45
2021/12/06 09:17:55;;;;;;;18.83;13.63;;;4.30;89.80;;;;;;5061905;28;21096;-45
2021/12/06 09:20:28;;;;;;;20.80;14.07;;;4.40;89.30;;;;;;5060749;28;20488;-45
2021/12/06 09:22:56;;;;;;;18.37;13.70;;;4.50;88.70;;;;;;5060899;28;20454;-45
2021/12/06 09:25:26;;;;;;;22.67;13.90;;;4.50;89.20;;;;;;5062550;28;20469;-45
2021/12/06 09:27:54;;;;;;;24.83;13.83;;;4.60;89.60;;;;;;5057575;28;20449;-45
2021/12/06 09:30:26;;;;;;;20.20;13.60;;;4.70;88.50;;;;;;5059272;28;20492;-45
2021/12/06 09:32:56;;;;;;;18.20;12.10;;;4.70;88.50;;;;;;5052101;28;20513;-44
2021/12/06 09:35:27;;;;;;;16.80;12.27;;;4.80;88.30;;;;;;5044892;28;20466;-45
2021/12/06 09:37:58;;;;;;;19.67;13.60;;;4.90;88.50;;;;;;5043144;28;20458;-45
2021/12/06 09:40:29;;;;;;;19.80;14.10;;;5.00;87.90;;;;;;5041972;28;20497;-45
2021/12/06 09:42:59;;;;;;;25.10;15.00;;;5.10;87.60;;;;;;5043705;28;20962;-45
2021/12/06 09:45:32;;;;;;;20.83;13.77;;;5.10;87.60;;;;;;5048598;28;20446;-45
2021/12/06 09:48:03;;;;;;;18.90;13.90;;;5.30;86.90;;;;;;5044593;28;20842;-44
2021/12/06 09:50:35;;;;;;;17.77;13.07;;;5.40;86.30;;;;;;5046506;28;21043;-45
2021/12/06 09:53:07;;;;;;;19.60;13.60;;;5.50;86.20;;;;;;5046034;28;20462;-45
2021/12/06 09:55:37;;;;;;;20.97;14.10;;;5.60;86.10;;;;;;5045274;28;20497;-45
2021/12/06 09:58:06;;;;;;;15.47;13.20;;;5.70;86.00;;;;;;5040874;28;20466;-45
2021/12/06 10:00:40;;;;;;;19.03;13.50;;;5.90;84.10;;;;;;5045978;28;20493;-45
2021/12/06 10:03:11;;;;;;;17.80;13.50;;;5.90;83.50;;;;;;5046198;28;20500;-45
2021/12/06 10:05:39;;;;;;;16.90;11.50;;;6.00;83.20;;;;;;5048752;28;20859;-46
2021/12/06 10:08:07;;;;;;;20.50;13.50;;;6.00;82.80;;;;;;5046963;28;20470;-45
2021/12/06 10:10:36;;;;;;;16.73;12.63;;;6.00;82.40;;;;;;5048478;28;20458;-45
2021/12/06 10:13:04;;;;;;;16.43;13.13;;;6.00;82.40;;;;;;5045328;28;20464;-46
2021/12/06 10:15:32;;;;;;;19.37;13.13;;;5.90;83.00;;;;;;5045957;28;20954;-45
2021/12/06 10:18:01;;;;;;;17.90;13.30;;;5.80;83.90;;;;;;5050635;28;20466;-45
2021/12/06 10:20:31;;;;;;;16.37;12.00;;;5.90;83.80;;;;;;5045846;28;20794;-46
2021/12/06 10:23:00;;;;;;;15.13;12.80;;;5.90;83.80;;;;;;5044354;28;20457;-46
2021/12/06 10:25:38;;;;;;;17.77;12.43;;;5.80;83.70;;;;;;5044918;28;20469;-46
2021/12/06 10:28:12;;;;;;;20.20;13.23;;;5.80;83.70;;;;;;5044898;28;20824;-46
2021/12/06 10:30:48;;;;;;;15.20;12.40;;;5.80;83.70;;;;;;5045659;28;20487;-46
2021/12/06 10:33:23;;;;;;;16.20;11.93;;;5.80;84.00;;;;;;5049740;28;20811;-46
2021/12/06 10:35:55;;;;;;;14.43;10.93;;;5.80;84.10;;;;;;5047087;28;21170;-46
2021/12/06 10:38:33;;;;;;;16.93;11.63;;;5.80;84.00;;;;;;5045145;28;20876;-46
2021/12/06 10:41:10;;;;;;;14.33;11.77;;;5.80;84.20;;;;;;5042825;28;20486;-46
2021/12/06 10:43:40;;;;;;;17.03;12.07;;;5.80;84.10;;;;;;5043901;28;20455;-46
2021/12/06 10:46:09;;;;;;;16.33;11.33;;;5.80;83.60;;;;;;5049001;28;20932;-46
2021/12/06 10:48:39;;;;;;;13.53;10.40;;;5.80;83.50;;;;;;5043678;28;20759;-46
2021/12/06 10:51:14;;;;;;;16.23;11.40;;;5.80;83.70;;;;;;5050635;28;20458;-46
2021/12/06 10:53:47;;;;;;;10.33;9.20;;;5.80;83.40;;;;;;5047411;28;20910;-46
2021/12/06 10:56:24;;;;;;;14.30;10.20;;;5.80;84.00;;;;;;5046013;28;20467;-46
2021/12/06 10:58:55;;;;;;;13.37;9.87;;;5.70;84.40;;;;;;5043913;28;20454;-46
2021/12/06 11:01:31;;;;;;;13.60;11.27;;;5.80;84.50;;;;;;5047405;28;20485;-46
2021/12/06 11:04:12;;;;;;;14.10;11.10;;;5.80;84.40;;;;;;5046050;28;20462;-46
2021/12/06 11:06:44;;;;;;;13.07;9.63;;;5.80;84.50;;;;;;5036376;28;20455;-46
2021/12/06 11:09:22;;;;;;;13.07;10.50;;;5.80;84.70;;;;;;5040689;28;20458;-46
2021/12/06 11:11:57;;;;;;;14.30;10.03;;;5.90;84.60;;;;;;5058627;28;20468;-46
2021/12/06 11:14:43;;;;;;;14.40;11.03;;;5.90;84.70;;;;;;5061244;28;20971;-46
2021/12/06 11:17:18;;;;;;;15.07;11.60;;;5.90;85.00;;;;;;5041016;28;20966;-46
2021/12/06 11:19:50;;;;;;;15.53;12.30;;;6.00;84.90;;;;;;5060533;28;20468;-46
2021/12/06 11:22:21;;;;;;;13.90;10.43;;;6.10;84.70;;;;;;5064148;28;21017;-46
2021/12/06 11:24:51;;;;;;;15.10;11.10;;;6.10;84.30;;;;;;5067387;28;21152;-46
2021/12/06 11:27:24;;;;;;;15.90;11.17;;;6.20;84.30;;;;;;5062670;28;20445;-46
2021/12/06 11:29:57;;;;;;;14.23;10.57;;;6.30;84.50;;;;;;5063179;28;20474;-46
2021/12/06 11:32:30;;;;;;;16.20;11.20;;;6.30;84.10;;;;;;5066999;28;20585;-46
2021/12/06 11:35:11;;;;;;;12.90;10.60;;;6.40;83.70;;;;;;5066525;28;20466;-46
2021/12/06 11:37:48;;;;;;;11.57;9.67;;;6.40;83.60;;;;;;5063046;28;20461;-46
2021/12/06 11:40:31;;;;;;;13.77;11.07;;;6.40;83.30;;;;;;5065226;28;20461;-46
2021/12/06 11:43:03;;;;;;;12.93;9.80;;;6.50;83.00;;;;;;5068545;28;20481;-46
2021/12/06 11:45:34;;;;;;;16.13;11.80;;;6.50;82.70;;;;;;5061710;28;20461;-46
2021/12/06 11:48:07;;;;;;;14.30;11.27;;;6.50;82.80;;;;;;5060135;28;20488;-46
2021/12/06 11:50:47;;;;;;;13.80;10.27;;;6.40;83.10;;;;;;5062748;28;20974;-46
2021/12/06 11:53:18;;;;;;;15.57;10.07;;;6.50;83.10;;;;;;5063428;28;20453;-46
2021/12/06 11:55:56;;;;;;;13.27;9.70;;;6.50;83.00;;;;;;5062482;28;20958;-46
2021/12/06 11:58:43;;;;;;;12.00;9.43;;;6.50;82.60;;;;;;5063212;28;21092;-46
2021/12/06 12:01:25;;;;;;;9.07;7.10;;;6.60;82.10;;;;;;5066838;28;20845;-46
2021/12/06 12:03:57;;;;;;;15.67;8.23;;;6.70;80.70;;;;;;5061909;28;20469;-46
2021/12/06 12:06:33;;;;;;;9.57;7.40;;;6.70;80.60;;;;;;5065104;28;20470;-46
2021/12/06 12:09:12;;;;;;;8.30;7.50;;;6.70;79.90;;;;;;5066823;28;20457;-46
2021/12/06 12:12:19;;;;;;;11.83;7.63;;;6.60;80.00;;;;;;5067029;28;20457;-46
2021/12/06 12:14:54;;;;;;;9.50;7.53;;;6.60;79.40;;;;;;5062268;28;20458;-46
2021/12/06 12:17:31;;;;;;;8.03;6.03;;;6.60;79.90;;;;;;5062824;28;20458;-46
2021/12/06 12:20:06;;;;;;;8.90;7.57;;;6.50;80.40;;;;;;5061588;28;21002;-46
2021/12/06 12:22:34;;;;;;;10.40;6.80;;;6.50;80.80;;;;;;5049994;28;20487;-46
2021/12/06 12:25:09;;;;;;;10.80;8.23;;;6.50;80.70;;;;;;5057977;28;20834;-46
2021/12/06 12:27:50;;;;;;;10.63;7.13;;;6.50;80.50;;;;;;5062024;28;20456;-46
2021/12/06 12:30:18;;;;;;;11.13;8.37;;;6.50;80.60;;;;;;5063883;28;20826;-46
2021/12/06 12:32:47;;;;;;;8.90;7.60;;;6.50;80.70;;;;;;5061615;28;20466;-46
2021/12/06 12:35:15;;;;;;;9.17;8.10;;;6.50;81.00;;;;;;5048757;28;20457;-46
2021/12/06 12:37:44;;;;;;;16.20;8.30;;;6.50;81.40;;;;;;5059620;28;20548;-46
2021/12/06 12:40:16;;;;;;;11.07;8.60;;;6.50;81.30;;;;;;5065816;28;20468;-46
2021/12/06 12:43:01;;;;;;;11.83;9.10;;;6.50;81.80;;;;;;5039048;28;20504;-46
2021/12/06 12:45:51;;;;;;;13.20;9.53;;;6.60;81.10;;;;;;5061000;28;20849;-46
2021/12/06 12:48:23;;;;;;;11.53;9.30;;;6.50;81.00;;;;;;5036427;28;20469;-46
2021/12/06 12:51:03;;;;;;;13.97;10.40;;;6.50;81.40;;;;;;5057948;28;20468;-46
2021/12/06 12:53:45;;;;;;;17.13;12.23;;;6.50;81.60;;;;;;5039192;28;21091;-46
2021/12/06 12:56:27;;;;;;;15.70;11.80;;;6.50;82.20;;;;;;5047181;28;20475;-46
2021/12/06 12:58:54;;;;;;;19.37;12.93;;;6.60;81.80;;;;;;5061110;28;20469;-45
2021/12/06 13:01:27;;;;;;;16.50;12.83;;;6.60;82.30;;;;;;5059271;28;20830;-45
2021/12/06 13:03:59;;;;;;;22.20;13.10;;;6.60;82.50;;;;;;5058947;28;20453;-45
2021/12/06 13:06:26;;;;;;;16.63;13.13;;;6.60;82.80;;;;;;5063280;28;20441;-45
2021/12/06 13:09:22;;;;;;;14.63;11.57;;;6.60;82.20;;;;;;5048800;28;20469;-45
2021/12/06 13:11:55;;;;;;;21.40;12.93;;;6.70;82.50;;;;;;5040019;28;20489;-45
2021/12/06 13:14:37;;;;;;;18.40;13.47;;;6.70;81.90;;;;;;5069462;28;20934;-45
2021/12/06 13:17:07;;;;;;;17.93;13.53;;;6.70;82.50;;;;;;5067876;28;20461;-46
2021/12/06 13:22:31;;;;;;;18.00;13.17;;;6.70;80.90;;;;;;5065990;28;20487;-46
2021/12/06 13:25:03;;;;;;;14.33;11.17;;;6.70;80.90;;;;;;5047162;28;20453;-45
2021/12/06 13:27:43;;;;;;;15.60;10.40;;;6.60;80.60;;;;;;5045786;28;20449;-45
2021/12/06 13:30:24;;;;;;;16.10;11.00;;;6.50;80.40;;;;;;5050147;28;21154;-46
2021/12/06 13:32:58;;;;;;;15.97;11.30;;;6.40;80.50;;;;;;5067308;28;20465;-45
2021/12/06 13:35:45;;;;;;;15.80;11.60;;;6.30;80.40;;;;;;5066061;28;20457;-45
2021/12/06 13:38:24;;;;;;;17.63;13.00;;;6.10;81.10;;;;;;5067558;28;20463;-46
2021/12/06 13:40:51;;;;;;;13.87;10.63;;;6.10;82.10;;;;;;5049687;28;20461;-45
2021/12/06 13:43:24;;;;;;;16.57;10.57;;;6.00;82.40;;;;;;5066208;28;20489;-45
2021/12/06 13:45:55;;;;;;;14.83;9.80;;;6.00;82.20;;;;;;5047057;28;20967;-45
2021/12/06 13:48:33;;;;;;;13.83;10.30;;;5.90;82.60;;;;;;5066398;28;20445;-45
2021/12/06 13:51:35;;;;;;;12.27;10.33;;;5.90;83.10;;;;;;5066416;28;20783;-46
2021/12/06 13:54:13;;;;;;;13.70;11.30;;;5.90;83.40;;;;;;5068419;28;20453;-45
2021/12/06 13:56:47;;;;;;;12.43;9.07;;;5.80;83.20;;;;;;5066720;28;20437;-45
2021/12/06 13:59:19;;;;;;;11.27;9.60;;;5.80;83.40;;;;;;5070340;28;20441;-45
2021/12/06 14:01:47;;;;;;;11.37;8.20;;;5.80;82.80;;;;;;5066954;28;21064;-46
2021/12/06 14:04:18;;;;;;;11.80;9.00;;;5.80;82.90;;;;;;5035428;28;20484;-45
2021/12/06 14:06:53;;;;;;;12.00;9.47;;;5.80;82.60;;;;;;5066365;28;20508;-45
2021/12/06 14:09:27;;;;;;;15.80;9.83;;;5.70;82.90;;;;;;5066983;28;20441;-45
2021/12/06 14:11:56;;;;;;;15.00;9.30;;;5.70;82.90;;;;;;5064061;28;20697;-45
2021/12/06 14:14:25;;;;;;;15.37;11.07;;;5.70;83.50;;;;;;5063692;28;20812;-45
2021/12/06 14:16:53;;;;;;;12.80;10.33;;;5.60;83.20;;;;;;5050379;28;20456;-45
2021/12/06 14:19:24;;;;;;;12.63;9.40;;;5.60;83.50;;;;;;5065665;28;20544;-44
2021/12/06 14:21:53;;;;;;;15.60;9.67;;;5.60;83.40;;;;;;5066195;28;20481;-45
2021/12/06 14:24:26;;;;;;;13.10;9.83;;;5.50;83.80;;;;;;5050266;28;20450;-45
2021/12/06 14:26:53;;;;;;;10.77;9.60;;;5.50;83.80;;;;;;5069251;28;20456;-45
2021/12/06 14:29:25;;;;;;;11.93;10.17;;;5.50;83.80;;;;;;5051788;28;20503;-47
2021/12/06 14:31:54;;;;;;;12.47;9.43;;;5.50;83.60;;;;;;5049733;28;20473;-45
2021/12/06 14:34:29;;;;;;;14.33;11.33;;;5.40;83.60;;;;;;5048315;28;20580;-45
2021/12/06 14:36:56;;;;;;;10.47;8.43;;;5.40;83.60;;;;;;5065117;28;20446;-45
2021/12/06 14:39:27;;;;;;;14.03;10.20;;;5.40;84.20;;;;;;5061965;28;20463;-46
2021/12/06 14:42:06;;;;;;;13.83;10.10;;;5.40;84.60;;;;;;5060465;28;20484;-45
2021/12/06 14:44:38;;;;;;;13.17;10.13;;;5.40;84.50;;;;;;5065119;28;20458;-44
2021/12/06 14:47:35;;;;;;;12.57;10.03;;;5.30;84.90;;;;;;5064208;28;20590;-46
2021/12/06 14:50:10;;;;;;;22.40;10.70;;;5.30;85.30;;;;;;5037616;28;20466;-45
2021/12/06 14:52:40;;;;;;;12.93;10.53;;;5.30;85.60;;;;;;5044690;28;20464;-45
2021/12/06 14:55:43;;;;;;;11.97;9.50;;;5.20;85.60;;;;;;5064472;28;20544;-45
2021/12/06 14:58:35;;;;;;;15.37;10.23;;;5.30;85.50;;;;;;5060093;28;20996;-45
2021/12/06 15:01:15;;;;;;;11.77;9.37;;;5.30;85.40;;;;;;5040180;28;20627;-45
2021/12/06 15:03:52;;;;;;;11.80;9.33;;;5.40;85.20;;;;;;5058162;28;20486;-45
2021/12/06 15:06:19;;;;;;;11.87;8.43;;;5.40;85.20;;;;;;5059484;28;20980;-45
2021/12/06 15:08:51;;;;;;;10.10;8.60;;;5.40;85.10;;;;;;5060740;28;20544;-45
2021/12/06 15:11:22;;;;;;;12.30;8.30;;;5.50;84.50;;;;;;5045437;28;20536;-45
2021/12/06 15:13:52;;;;;;;10.00;7.70;;;5.50;84.40;;;;;;5068190;28;20504;-45
2021/12/06 15:16:21;;;;;;;13.60;9.10;;;5.50;84.00;;;;;;5065527;28;20509;-45
2021/12/06 15:18:48;;;;;;;10.97;8.63;;;5.50;83.80;;;;;;5066870;28;20527;-45
2021/12/06 15:21:19;;;;;;;9.70;8.10;;;5.50;83.70;;;;;;5062105;28;20903;-45
2021/12/06 15:23:49;;;;;;;9.03;7.80;;;5.50;83.70;;;;;;5064537;28;20493;-45
2021/12/06 15:26:29;;;;;;;11.93;9.20;;;5.50;83.90;;;;;;5042604;28;20447;-45
2021/12/06 15:28:59;;;;;;;11.17;8.40;;;5.50;83.90;;;;;;5046129;28;20454;-45
2021/12/06 15:31:26;;;;;;;9.93;8.93;;;5.50;83.80;;;;;;5064266;28;21009;-45
2021/12/06 15:33:56;;;;;;;10.60;8.30;;;5.60;83.40;;;;;;5063869;28;20867;-45
2021/12/06 15:36:25;;;;;;;12.20;7.80;;;5.50;83.50;;;;;;5061230;28;20827;-45
2021/12/06 15:39:03;;;;;;;11.47;7.90;;;5.50;83.80;;;;;;5029554;28;20457;-45
2021/12/06 15:41:40;;;;;;;11.97;8.80;;;5.50;83.60;;;;;;5043041;28;20481;-45
2021/12/06 15:44:12;;;;;;;9.97;8.90;;;5.50;83.70;;;;;;5062883;28;20465;-45
2021/12/06 15:47:11;;;;;;;9.30;7.80;;;5.60;83.30;;;;;;5046396;28;20508;-45
2021/12/06 15:49:41;;;;;;;9.80;7.80;;;5.50;83.20;;;;;;5064250;28;20463;-45
2021/12/06 15:52:12;;;;;;;9.30;8.20;;;5.60;82.30;;;;;;5061057;28;20839;-45
2021/12/06 15:55:23;;;;;;;7.67;6.87;;;5.50;82.10;;;;;;5046918;28;20539;-45
2021/12/06 15:57:56;;;;;;;8.40;6.93;;;5.60;81.00;;;;;;5059914;28;20478;-45
2021/12/06 16:00:27;;;;;;;10.03;7.50;;;5.50;80.70;;;;;;5043677;28;20454;-45
2021/12/06 16:02:56;;;;;;;7.27;6.57;;;5.40;81.40;;;;;;5040788;28;20490;-45
2021/12/06 16:05:27;;;;;;;6.70;5.90;;;5.40;80.50;;;;;;5025920;28;20453;-45
2021/12/06 16:08:06;;;;;;;10.10;8.43;;;5.40;80.90;;;;;;5030834;28;21075;-45
2021/12/06 16:10:40;;;;;;;10.60;8.17;;;5.30;81.40;;;;;;5062397;28;20463;-45
2021/12/06 16:13:22;;;;;;;9.53;7.90;;;5.30;81.50;;;;;;5045143;28;20584;-45
2021/12/06 16:15:52;;;;;;;10.17;8.10;;;5.30;81.50;;;;;;5059481;28;20466;-45
2021/12/06 16:18:23;;;;;;;8.90;7.50;;;5.30;81.40;;;;;;5061392;28;20469;-45
2021/12/06 16:21:25;;;;;;;11.07;9.10;;;5.20;81.10;;;;;;5063475;28;20460;-45
2021/12/06 16:23:55;;;;;;;9.10;7.70;;;5.20;81.00;;;;;;5064978;28;20481;-45
2021/12/06 16:26:28;;;;;;;7.20;6.50;;;5.20;80.90;;;;;;5061678;28;20457;-45
2021/12/06 16:29:04;;;;;;;6.20;5.67;;;5.20;80.50;;;;;;5064352;28;20454;-45
2021/12/06 16:31:35;;;;;;;6.33;5.70;;;5.30;79.90;;;;;;5065865;28;20484;-45
2021/12/06 16:34:05;;;;;;;5.40;4.00;;;5.20;79.90;;;;;;5066675;28;20549;-45
2021/12/06 16:36:51;;;;;;;5.47;4.63;;;5.20;79.80;;;;;;5044648;28;20461;-45
2021/12/06 16:39:38;;;;;;;8.17;5.30;;;5.20;79.80;;;;;;5064597;28;20461;-45
2021/12/06 16:42:13;;;;;;;6.60;5.87;;;5.10;79.70;;;;;;5066784;28;20843;-45
2021/12/06 16:44:49;;;;;;;6.57;4.90;;;5.10;79.80;;;;;;5067407;28;20911;-45
2021/12/06 16:47:38;;;;;;;7.70;6.57;;;5.00;79.80;;;;;;5048219;28;20456;-45
2021/12/06 16:50:10;;;;;;;4.67;4.23;;;5.00;80.10;;;;;;5065220;28;20953;-45
2021/12/06 16:52:54;;;;;;;5.50;4.87;;;5.00;80.40;;;;;;5070550;28;20448;-45
2021/12/06 16:55:27;;;;;;;7.73;4.07;;;5.00;80.50;;;;;;5069432;28;20453;-45
2021/12/06 16:57:58;;;;;;;4.90;4.13;;;5.00;80.40;;;;;;5050509;28;20445;-45
2021/12/06 17:00:28;;;;;;;6.17;4.27;;;5.00;80.20;;;;;;5034864;28;20464;-45
2021/12/06 17:02:58;;;;;;;4.73;4.00;;;5.00;80.40;;;;;;5047685;28;20851;-45
2021/12/06 17:05:31;;;;;;;4.63;3.40;;;5.00;80.10;;;;;;5052706;28;20482;-45
2021/12/06 17:08:29;;;;;;;8.80;3.93;;;5.00;80.00;;;;;;5049666;28;20968;-44
2021/12/06 17:10:59;;;;;;;4.07;3.77;;;5.00;80.10;;;;;;5069780;28;20793;-45
2021/12/06 17:13:29;;;;;;;3.63;3.20;;;5.00;80.10;;;;;;5050864;28;20446;-45
2021/12/06 17:16:02;;;;;;;4.50;3.40;;;5.00;80.00;;;;;;5069892;28;20495;-45
2021/12/06 17:18:35;;;;;;;4.30;3.20;;;5.00;79.40;;;;;;5063316;28;20453;-45
2021/12/06 17:21:13;;;;;;;4.00;3.17;;;5.00;79.60;;;;;;5044536;28;20560;-45
2021/12/06 17:23:43;;;;;;;3.13;2.93;;;5.00;79.50;;;;;;5067460;28;21140;-45
2021/12/06 17:26:15;;;;;;;3.03;2.83;;;4.90;79.50;;;;;;5043963;28;20466;-45
2021/12/06 17:29:04;;;;;;;2.97;2.67;;;4.90;79.40;;;;;;5064948;28;20468;-45
2021/12/06 17:31:43;;;;;;;4.37;3.20;;;4.90;79.40;;;;;;5043069;28;21013;-45
2021/12/06 17:34:18;;;;;;;3.00;2.60;;;4.80;79.40;;;;;;5061134;28;20469;-45
2021/12/06 17:36:48;;;;;;;3.37;3.07;;;4.90;79.20;;;;;;5047499;28;20444;-45
2021/12/06 17:39:19;;;;;;;3.00;2.80;;;4.90;79.00;;;;;;5066683;28;20456;-45
2021/12/06 17:41:47;;;;;;;2.73;2.53;;;4.90;79.60;;;;;;5066638;28;20458;-45
2021/12/06 17:44:18;;;;;;;4.33;3.33;;;4.90;79.00;;;;;;5064538;28;21057;-45
2021/12/06 17:46:46;;;;;;;3.70;3.40;;;4.80;79.70;;;;;;5069348;28;20449;-45
2021/12/06 17:49:16;;;;;;;4.83;3.63;;;4.80;80.00;;;;;;5049087;28;20457;-45
2021/12/06 17:51:47;;;;;;;3.87;3.17;;;4.80;79.60;;;;;;5046076;28;20465;-45
2021/12/06 17:54:17;;;;;;;4.30;2.60;;;4.80;79.80;;;;;;5066347;28;20458;-45
2021/12/06 17:56:45;;;;;;;3.23;2.93;;;4.90;80.00;;;;;;5066861;28;20487;-45
2021/12/06 17:59:23;;;;;;;3.47;3.27;;;4.80;80.20;;;;;;5069400;28;20464;-45
2021/12/06 18:01:58;;;;;;;3.37;3.07;;;4.90;80.00;;;;;;5045926;28;23235;-45
2021/12/06 18:04:33;;;;;;;3.63;3.13;;;4.90;79.80;;;;;;5067162;28;20529;-45
2021/12/06 18:07:00;;;;;;;3.80;3.40;;;4.90;79.90;;;;;;5066117;28;20473;-45
2021/12/06 18:09:27;;;;;;;3.47;3.17;;;4.80;80.00;;;;;;5065500;28;20924;-45
2021/12/06 18:11:58;;;;;;;5.23;3.87;;;4.80;80.00;;;;;;5044328;28;21065;-45
2021/12/06 18:14:27;;;;;;;3.70;3.30;;;4.80;80.10;;;;;;5065055;28;20462;-45
2021/12/06 18:16:56;;;;;;;4.10;3.80;;;4.80;80.10;;;;;;5044190;28;20462;-45
2021/12/06 18:19:24;;;;;;;5.70;4.93;;;4.80;80.20;;;;;;5061025;28;20465;-45
2021/12/06 18:21:53;;;;;;;8.70;6.20;;;4.80;80.30;;;;;;5042280;28;20453;-45
2021/12/06 18:24:20;;;;;;;6.17;5.57;;;4.80;80.30;;;;;;5067048;28;20486;-45
2021/12/06 18:26:48;;;;;;;5.50;4.70;;;4.80;80.50;;;;;;5043574;28;20457;-45
2021/12/06 18:29:15;;;;;;;7.37;5.00;;;4.80;80.50;;;;;;5059411;28;20457;-45
2021/12/06 18:31:45;;;;;;;5.57;4.33;;;4.80;80.40;;;;;;5042974;28;21298;-45
2021/12/06 18:34:14;;;;;;;7.07;6.47;;;4.80;80.40;;;;;;5060177;28;20549;-45
2021/12/06 18:36:43;;;;;;;6.63;5.83;;;4.70;80.40;;;;;;5062758;28;20465;-45
2021/12/06 18:39:16;;;;;;;9.73;8.17;;;4.80;80.50;;;;;;5064191;28;20461;-45
2021/12/06 18:41:43;;;;;;;8.17;7.20;;;4.70;80.60;;;;;;5064795;28;20465;-45
2021/12/06 18:44:14;;;;;;;7.63;5.80;;;4.70;80.40;;;;;;5060695;28;20496;-45
2021/12/06 18:46:44;;;;;;;8.80;6.87;;;4.70;80.30;;;;;;5050372;28;20448;-45
2021/12/06 18:49:18;;;;;;;8.80;7.93;;;4.70;80.40;;;;;;5068957;28;21068;-45
2021/12/06 18:51:49;;;;;;;5.60;4.57;;;4.70;80.20;;;;;;5067285;28;20450;-45
2021/12/06 18:54:17;;;;;;;5.93;5.17;;;4.70;80.50;;;;;;5068999;28;20468;-45
2021/12/06 18:56:44;;;;;;;6.07;5.33;;;4.70;80.70;;;;;;5062929;28;20493;-45
2021/12/06 18:59:11;;;;;;;6.23;5.63;;;4.70;80.60;;;;;;5062858;28;20458;-45
2021/12/06 19:01:38;;;;;;;6.80;6.20;;;4.60;80.70;;;;;;5048617;28;20445;-45
2021/12/06 19:04:07;;;;;;;5.43;4.93;;;4.60;80.70;;;;;;5066003;28;20489;-45
2021/12/06 19:06:38;;;;;;;8.93;6.20;;;4.60;80.80;;;;;;5047009;28;20446;-45
2021/12/06 19:09:10;;;;;;;6.80;5.90;;;4.60;80.90;;;;;;5065692;28;20449;-45
2021/12/06 19:11:37;;;;;;;4.97;4.57;;;4.50;81.00;;;;;;5048802;28;20453;-45
2021/12/06 19:14:24;;;;;;;5.87;5.13;;;4.50;81.50;;;;;;5052958;28;20924;-45
2021/12/06 19:16:51;;;;;;;6.60;5.93;;;4.50;81.50;;;;;;5067046;28;20887;-45
2021/12/06 19:19:18;;;;;;;5.53;5.10;;;4.60;81.50;;;;;;5063647;28;20454;-45
2021/12/06 19:21:46;;;;;;;8.33;6.40;;;4.50;81.60;;;;;;5064569;28;20454;-45
2021/12/06 19:24:12;;;;;;;9.43;7.50;;;4.50;81.80;;;;;;5065936;28;20496;-45
2021/12/06 19:26:39;;;;;;;10.80;8.13;;;4.50;82.00;;;;;;5066560;28;20450;-45
2021/12/06 19:29:07;;;;;;;8.70;7.27;;;4.50;82.00;;;;;;5062954;28;20446;-45
2021/12/06 19:31:34;;;;;;;9.20;7.60;;;4.40;82.20;;;;;;5067241;28;20856;-46
2021/12/06 19:34:01;;;;;;;8.17;7.20;;;4.40;82.40;;;;;;5065114;28;20456;-46
2021/12/06 19:36:27;;;;;;;8.93;7.00;;;4.40;82.50;;;;;;5046513;28;20812;-45
2021/12/06 19:38:54;;;;;;;7.13;6.03;;;4.40;82.70;;;;;;5065133;28;20434;-45
2021/12/06 19:41:21;;;;;;;8.53;7.17;;;4.30;82.90;;;;;;5061521;28;20474;-45
2021/12/06 19:43:49;;;;;;;9.07;7.20;;;4.30;83.00;;;;;;5045372;28;20604;-45
2021/12/06 19:46:16;;;;;;;9.60;7.53;;;4.30;83.10;;;;;;5047435;28;20452;-45
2021/12/06 19:48:43;;;;;;;8.33;7.00;;;4.40;83.30;;;;;;5067196;28;20456;-45
2021/12/06 19:51:11;;;;;;;7.80;7.00;;;4.30;83.20;;;;;;5048130;28;20450;-45
2021/12/06 19:53:39;;;;;;;8.43;7.20;;;4.30;83.30;;;;;;5066669;28;20472;-45
2021/12/06 19:56:07;;;;;;;9.77;7.10;;;4.30;83.50;;;;;;5067566;28;20457;-45
2021/12/06 19:58:35;;;;;;;7.13;6.43;;;4.30;83.70;;;;;;5047638;28;20880;-45
2021/12/06 20:01:07;;;;;;;13.13;7.77;;;4.30;83.60;;;;;;5064580;28;20453;-45
2021/12/06 20:03:40;;;;;;;8.83;8.03;;;4.40;83.40;;;;;;5064858;28;20531;-45
2021/12/06 20:06:08;;;;;;;11.00;8.20;;;4.40;83.60;;;;;;5048639;28;20515;-45
2021/12/06 20:08:35;;;;;;;10.57;8.40;;;4.40;83.50;;;;;;5048651;28;20458;-45
2021/12/06 20:11:06;;;;;;;12.50;9.27;;;4.30;83.70;;;;;;5058585;28;20493;-45
2021/12/06 20:13:36;;;;;;;13.10;10.70;;;4.30;84.00;;;;;;5060472;28;20913;-45
2021/12/06 20:16:04;;;;;;;13.73;11.30;;;4.30;84.10;;;;;;5041916;28;21094;-45
2021/12/06 20:18:31;;;;;;;10.90;9.77;;;4.30;84.30;;;;;;5043314;28;21102;-45
2021/12/06 20:20:58;;;;;;;12.77;9.73;;;4.30;84.30;;;;;;5057245;28;20487;-45
2021/12/06 20:23:25;;;;;;;14.33;10.30;;;4.30;84.60;;;;;;5064916;28;20513;-45
2021/12/06 20:25:54;;;;;;;12.73;10.17;;;4.30;84.90;;;;;;5064991;28;20466;-45
2021/12/06 20:28:22;;;;;;;14.00;10.40;;;4.30;85.00;;;;;;5061740;28;20468;-45
2021/12/06 20:30:50;;;;;;;14.17;9.93;;;4.30;84.90;;;;;;5048040;28;20539;-46
2021/12/06 20:33:18;;;;;;;11.70;9.43;;;4.20;85.10;;;;;;5062790;28;21049;-45
2021/12/06 20:35:46;;;;;;;15.53;10.30;;;4.20;85.20;;;;;;5049791;28;20548;-45
2021/12/06 20:38:14;;;;;;;11.33;9.80;;;4.20;85.30;;;;;;5067908;28;20942;-45
2021/12/06 20:40:42;;;;;;;15.60;10.40;;;4.20;85.30;;;;;;5032024;28;20968;-45
2021/12/06 20:43:10;;;;;;;10.20;9.17;;;4.20;85.30;;;;;;5047855;28;20993;-45
2021/12/06 20:45:38;;;;;;;14.57;10.90;;;4.20;85.30;;;;;;5065058;28;20506;-45
2021/12/06 20:48:10;;;;;;;13.90;10.50;;;4.20;85.30;;;;;;5045730;28;20552;-45
2021/12/06 20:50:43;;;;;;;10.60;9.47;;;4.20;85.30;;;;;;5047445;28;20453;-45
2021/12/06 20:53:10;;;;;;;11.77;10.30;;;4.20;85.20;;;;;;5064998;28;20454;-45
2021/12/06 20:55:37;;;;;;;14.10;11.10;;;4.20;85.30;;;;;;5068151;28;20460;-45
2021/12/06 20:58:05;;;;;;;15.90;10.80;;;4.10;85.30;;;;;;5064376;28;21056;-45
2021/12/06 21:00:34;;;;;;;12.63;10.20;;;4.10;85.60;;;;;;5066533;28;20564;-45
2021/12/06 21:03:02;;;;;;;13.67;10.20;;;4.10;85.60;;;;;;5067689;28;20457;-45
2021/12/06 21:05:30;;;;;;;15.13;10.53;;;4.10;85.60;;;;;;5060411;28;20941;-45
2021/12/06 21:07:56;;;;;;;16.03;10.67;;;4.10;85.50;;;;;;5060648;28;20900;-45
2021/12/06 21:11:06;;;;;;;15.70;11.60;;;4.20;85.50;;;;;;5061427;28;20457;-45
2021/12/06 21:13:33;;;;;;;12.33;10.90;;;4.20;85.50;;;;;;5064480;28;20473;-45
2021/12/06 21:18:37;;;;;;;14.60;9.63;;;4.10;85.40;;;;;;5063093;28;20938;-45
2021/12/06 21:21:05;;;;;;;11.70;10.40;;;4.20;85.30;;;;;;5064665;28;21018;-45
2021/12/06 21:23:33;;;;;;;12.03;9.30;;;4.20;85.20;;;;;;5042195;28;20982;-45
2021/12/06 21:26:01;;;;;;;15.53;11.03;;;4.20;85.20;;;;;;5039612;28;20457;-45
2021/12/06 21:28:28;;;;;;;16.83;11.50;;;4.20;85.20;;;;;;5058372;28;20485;-45
2021/12/06 21:30:56;;;;;;;13.00;10.03;;;4.10;85.20;;;;;;5065391;28;20492;-46
2021/12/06 21:33:23;;;;;;;13.63;9.77;;;4.10;85.30;;;;;;5070185;28;20524;-45
2021/12/06 21:35:50;;;;;;;10.00;8.67;;;4.20;85.30;;;;;;5071094;28;20830;-45
2021/12/06 21:38:17;;;;;;;12.03;9.30;;;4.10;85.40;;;;;;5048905;28;20456;-45
2021/12/06 21:40:44;;;;;;;14.70;10.70;;;4.20;85.30;;;;;;5053300;28;20442;-45
2021/12/06 21:43:11;;;;;;;12.87;10.30;;;4.20;85.10;;;;;;5069494;28;20460;-45
2021/12/06 21:45:38;;;;;;;16.37;11.20;;;4.10;85.20;;;;;;5065611;28;20463;-45
2021/12/06 21:48:05;;;;;;;12.30;9.23;;;4.10;85.30;;;;;;5065621;28;20496;-45
2021/12/06 21:50:35;;;;;;;13.50;10.07;;;4.10;85.30;;;;;;5046151;28;20500;-45